sensor_id;sensor_type;location;lat;lon;timestamp;pressure;altitude;pressure_sealevel;temperature;humidity
6349;BME280;3207;42.648;23.406;2023-02-23T00:00:17;99824.69;;;10.59;70.25
6349;BME280;3207;42.648;23.406;2023-02-23T00:02:47;99816.88;;;10.59;69.77
6349;BME280;3207;42.648;23.406;2023-02-23T00:05:15;99819.13;;;10.53;70.01
6349;BME280;3207;42.648;23.406;2023-02-23T00:07:42;99810.81;;;10.48;70.20
6349;BME280;3207;42.648;23.406;2023-02-23T00:10:13;99805.81;;;10.45;69.36
6349;BME280;3207;42.648;23.406;2023-02-23T00:12:41;99810.56;;;10.51;69.48
6349;BME280;3207;42.648;23.406;2023-02-23T00:15:10;99809.63;;;10.52;69.56
6349;BME280;3207;42.648;23.406;2023-02-23T00:17:37;99815.31;;;10.46;69.46
6349;BME280;3207;42.648;23.406;2023-02-23T00:20:07;99815.53;;;10.43;69.98
6349;BME280;3207;42.648;23.406;2023-02-23T00:22:37;99816.69;;;10.39;69.86
6349;BME280;3207;42.648;23.406;2023-02-23T00:25:06;99807.56;;;10.33;70.10
6349;BME280;3207;42.648;23.406;2023-02-23T00:27:35;99816.44;;;10.31;70.47
6349;BME280;3207;42.648;23.406;2023-02-23T00:30:04;99812.06;;;10.07;70.73
6349;BME280;3207;42.648;23.406;2023-02-23T00:34:59;99811.97;;;9.61;nan
6349;BME280;3207;42.648;23.406;2023-02-23T00:37:26;99802.03;;;9.66;nan
6349;BME280;3207;42.648;23.406;2023-02-23T00:39:54;99811.03;;;9.62;nan
6349;BME280;3207;42.648;23.406;2023-02-23T00:42:22;99817.78;;;9.65;nan
6349;BME280;3207;42.648;23.406;2023-02-23T00:44:50;99811.75;;;9.64;nan
6349;BME280;3207;42.648;23.406;2023-02-23T00:47:17;99808.81;;;9.69;nan
6349;BME280;3207;42.648;23.406;2023-02-23T00:49:44;99814.75;;;9.71;nan
6349;BME280;3207;42.648;23.406;2023-02-23T00:52:11;99799.75;;;9.62;nan
6349;BME280;3207;42.648;23.406;2023-02-23T00:54:39;99800.81;;;9.59;nan
6349;BME280;3207;42.648;23.406;2023-02-23T00:57:07;99806.13;;;9.58;nan
6349;BME280;3207;42.648;23.406;2023-02-23T00:59:34;99803.97;;;9.51;nan
6349;BME280;3207;42.648;23.406;2023-02-23T01:02:02;99799.06;;;9.47;nan
6349;BME280;3207;42.648;23.406;2023-02-23T01:04:29;99802.03;;;9.42;nan
6349;BME280;3207;42.648;23.406;2023-02-23T01:06:56;99801.63;;;9.36;nan
6349;BME280;3207;42.648;23.406;2023-02-23T01:09:23;99804.56;;;9.31;nan
6349;BME280;3207;42.648;23.406;2023-02-23T01:11:55;99806.44;;;9.29;nan
6349;BME280;3207;42.648;23.406;2023-02-23T01:14:26;99812.59;;;9.28;nan
6349;BME280;3207;42.648;23.406;2023-02-23T01:16:53;99815.22;;;9.28;nan
6349;BME280;3207;42.648;23.406;2023-02-23T01:19:21;99817.28;;;9.23;nan
6349;BME280;3207;42.648;23.406;2023-02-23T01:21:48;99821.47;;;9.13;nan
6349;BME280;3207;42.648;23.406;2023-02-23T01:24:15;99812.72;;;9.14;nan
6349;BME280;3207;42.648;23.406;2023-02-23T01:26:43;99806.63;;;8.90;nan
6349;BME280;3207;42.648;23.406;2023-02-23T01:29:12;99808.53;;;9.11;nan
6349;BME280;3207;42.648;23.406;2023-02-23T01:31:42;99823.16;;;9.14;nan
6349;BME280;3207;42.648;23.406;2023-02-23T01:34:10;99810.41;;;9.22;nan
6349;BME280;3207;42.648;23.406;2023-02-23T01:36:41;99821.94;;;9.07;nan
6349;BME280;3207;42.648;23.406;2023-02-23T01:39:10;99820.16;;;8.95;nan
6349;BME280;3207;42.648;23.406;2023-02-23T01:41:38;99814.50;;;9.01;nan
6349;BME280;3207;42.648;23.406;2023-02-23T01:45:07;99820.16;;;8.95;nan
6349;BME280;3207;42.648;23.406;2023-02-23T01:46:55;99824.63;;;9.05;nan
6349;BME280;3207;42.648;23.406;2023-02-23T01:49:24;99800.44;;;9.03;nan
6349;BME280;3207;42.648;23.406;2023-02-23T01:51:58;99828.06;;;9.18;nan
6349;BME280;3207;42.648;23.406;2023-02-23T01:54:29;99823.03;;;9.28;nan
6349;BME280;3207;42.648;23.406;2023-02-23T01:57:01;99828.34;;;9.39;nan
6349;BME280;3207;42.648;23.406;2023-02-23T01:59:32;99814.34;;;9.40;nan
6349;BME280;3207;42.648;23.406;2023-02-23T02:02:01;99811.50;;;9.43;nan
6349;BME280;3207;42.648;23.406;2023-02-23T02:04:30;99816.28;;;9.49;nan
6349;BME280;3207;42.648;23.406;2023-02-23T02:07:09;99815.31;;;9.63;nan
6349;BME280;3207;42.648;23.406;2023-02-23T02:09:39;99810.69;;;9.67;nan
6349;BME280;3207;42.648;23.406;2023-02-23T02:12:13;99807.75;;;9.71;nan
6349;BME280;3207;42.648;23.406;2023-02-23T02:14:43;99809.31;;;9.74;nan
6349;BME280;3207;42.648;23.406;2023-02-23T02:17:18;99816.75;;;9.67;nan
6349;BME280;3207;42.648;23.406;2023-02-23T02:20:19;99812.03;;;9.72;nan
6349;BME280;3207;42.648;23.406;2023-02-23T02:23:24;99810.53;;;9.81;nan
6349;BME280;3207;42.648;23.406;2023-02-23T02:26:05;99814.16;;;9.91;nan
6349;BME280;3207;42.648;23.406;2023-02-23T02:28:48;99815.25;;;10.00;nan
6349;BME280;3207;42.648;23.406;2023-02-23T02:34:48;99812.00;;;9.96;nan
6349;BME280;3207;42.648;23.406;2023-02-23T02:37:42;99813.53;;;9.87;nan
6349;BME280;3207;42.648;23.406;2023-02-23T02:40:16;99813.31;;;9.90;nan
6349;BME280;3207;42.648;23.406;2023-02-23T02:42:59;99818.44;;;9.92;nan
6349;BME280;3207;42.648;23.406;2023-02-23T02:45:40;99822.84;;;10.03;nan
6349;BME280;3207;42.648;23.406;2023-02-23T02:48:16;99818.00;;;10.09;nan
6349;BME280;3207;42.648;23.406;2023-02-23T02:50:49;99817.91;;;10.11;nan
6349;BME280;3207;42.648;23.406;2023-02-23T02:53:25;99817.78;;;10.12;nan
6349;BME280;3207;42.648;23.406;2023-02-23T02:55:56;99805.88;;;10.08;nan
6349;BME280;3207;42.648;23.406;2023-02-23T02:58:25;99804.84;;;10.11;nan
6349;BME280;3207;42.648;23.406;2023-02-23T03:00:52;99810.44;;;10.17;nan
6349;BME280;3207;42.648;23.406;2023-02-23T03:03:39;99811.91;;;10.21;nan
6349;BME280;3207;42.648;23.406;2023-02-23T03:06:29;99809.81;;;10.26;nan
6349;BME280;3207;42.648;23.406;2023-02-23T03:09:26;99812.63;;;10.23;nan
6349;BME280;3207;42.648;23.406;2023-02-23T03:12:20;99808.91;;;10.15;nan
6349;BME280;3207;42.648;23.406;2023-02-23T03:15:18;99807.34;;;10.12;nan
6349;BME280;3207;42.648;23.406;2023-02-23T03:18:18;99807.34;;;10.12;nan
6349;BME280;3207;42.648;23.406;2023-02-23T03:21:12;99816.13;;;10.11;nan
6349;BME280;3207;42.648;23.406;2023-02-23T03:24:06;99813.63;;;10.10;nan
6349;BME280;3207;42.648;23.406;2023-02-23T03:26:57;99823.63;;;10.16;nan
6349;BME280;3207;42.648;23.406;2023-02-23T03:29:47;99820.81;;;10.19;nan
6349;BME280;3207;42.648;23.406;2023-02-23T03:32:40;99801.28;;;10.12;nan
6349;BME280;3207;42.648;23.406;2023-02-23T03:35:30;99818.63;;;10.37;nan
6349;BME280;3207;42.648;23.406;2023-02-23T03:38:21;99808.06;;;10.38;nan
6349;BME280;3207;42.648;23.406;2023-02-23T03:41:06;99816.72;;;10.50;nan
6349;BME280;3207;42.648;23.406;2023-02-23T03:43:56;99817.69;;;10.38;nan
6349;BME280;3207;42.648;23.406;2023-02-23T03:46:42;99809.59;;;10.41;nan
6349;BME280;3207;42.648;23.406;2023-02-23T03:49:32;99805.69;;;10.46;nan
6349;BME280;3207;42.648;23.406;2023-02-23T03:52:20;99809.47;;;10.42;nan
6349;BME280;3207;42.648;23.406;2023-02-23T03:55:10;99813.88;;;10.42;nan
6349;BME280;3207;42.648;23.406;2023-02-23T03:57:58;99820.78;;;10.54;nan
6349;BME280;3207;42.648;23.406;2023-02-23T04:00:47;99828.41;;;10.57;nan
6349;BME280;3207;42.648;23.406;2023-02-23T04:03:36;99810.84;;;10.59;nan
6349;BME280;3207;42.648;23.406;2023-02-23T04:06:25;99819.63;;;10.69;nan
6349;BME280;3207;42.648;23.406;2023-02-23T04:09:11;99819.75;;;10.68;nan
6349;BME280;3207;42.648;23.406;2023-02-23T04:11:59;99824.50;;;10.74;nan
6349;BME280;3207;42.648;23.406;2023-02-23T04:14:53;99823.44;;;10.76;nan
6349;BME280;3207;42.648;23.406;2023-02-23T04:17:24;99820.59;;;10.79;nan
6349;BME280;3207;42.648;23.406;2023-02-23T04:19:57;99818.44;;;10.84;nan
6349;BME280;3207;42.648;23.406;2023-02-23T04:22:24;99819.88;;;10.88;nan
6349;BME280;3207;42.648;23.406;2023-02-23T04:24:51;99816.31;;;10.89;nan
6349;BME280;3207;42.648;23.406;2023-02-23T04:27:18;99811.78;;;10.91;nan
6349;BME280;3207;42.648;23.406;2023-02-23T04:29:45;99821.66;;;10.88;nan
6349;BME280;3207;42.648;23.406;2023-02-23T04:32:14;99818.94;;;10.78;nan
6349;BME280;3207;42.648;23.406;2023-02-23T04:34:42;99819.66;;;10.80;nan
6349;BME280;3207;42.648;23.406;2023-02-23T04:37:09;99820.34;;;10.93;nan
6349;BME280;3207;42.648;23.406;2023-02-23T04:39:36;99821.78;;;10.97;nan
6349;BME280;3207;42.648;23.406;2023-02-23T04:42:03;99820.34;;;10.93;nan
6349;BME280;3207;42.648;23.406;2023-02-23T04:44:30;99823.44;;;10.87;nan
6349;BME280;3207;42.648;23.406;2023-02-23T04:46:56;99817.63;;;10.95;nan
6349;BME280;3207;42.648;23.406;2023-02-23T04:49:23;99827.03;;;10.97;nan
6349;BME280;3207;42.648;23.406;2023-02-23T04:51:51;99826.19;;;10.97;nan
6349;BME280;3207;42.648;23.406;2023-02-23T04:54:18;99836.78;;;11.07;nan
6349;BME280;3207;42.648;23.406;2023-02-23T04:56:45;99829.41;;;11.12;nan
6349;BME280;3207;42.648;23.406;2023-02-23T04:59:12;99826.66;;;11.13;nan
6349;BME280;3207;42.648;23.406;2023-02-23T05:01:38;99823.91;;;11.15;nan
6349;BME280;3207;42.648;23.406;2023-02-23T05:04:05;99818.47;;;11.18;nan
6349;BME280;3207;42.648;23.406;2023-02-23T05:06:32;99820.34;;;11.16;nan
6349;BME280;3207;42.648;23.406;2023-02-23T05:09:00;99821.19;;;11.16;nan
6349;BME280;3207;42.648;23.406;2023-02-23T05:11:29;99822.03;;;11.06;nan
6349;BME280;3207;42.648;23.406;2023-02-23T05:13:56;99829.88;;;11.06;nan
6349;BME280;3207;42.648;23.406;2023-02-23T05:16:23;99827.97;;;11.08;nan
6349;BME280;3207;42.648;23.406;2023-02-23T05:18:50;99829.16;;;11.15;nan
6349;BME280;3207;42.648;23.406;2023-02-23T05:21:17;99820.84;;;11.10;nan
6349;BME280;3207;42.648;23.406;2023-02-23T05:23:44;99830.69;;;11.17;nan
6349;BME280;3207;42.648;23.406;2023-02-23T05:26:13;99829.16;;;11.15;nan
6349;BME280;3207;42.648;23.406;2023-02-23T05:28:41;99828.91;;;11.18;nan
6349;BME280;3207;42.648;23.406;2023-02-23T05:31:08;99816.91;;;11.15;nan
6349;BME280;3207;42.648;23.406;2023-02-23T05:33:36;99822.13;;;11.15;nan
6349;BME280;3207;42.648;23.406;2023-02-23T05:36:07;99826.19;;;11.19;nan
6349;BME280;3207;42.648;23.406;2023-02-23T05:38:35;99832.97;;;11.22;nan
6349;BME280;3207;42.648;23.406;2023-02-23T05:41:04;99797.53;;;10.95;nan
6349;BME280;3207;42.648;23.406;2023-02-23T05:43:32;99828.69;;;11.21;nan
6349;BME280;3207;42.648;23.406;2023-02-23T05:45:59;99829.75;;;11.18;nan
6349;BME280;3207;42.648;23.406;2023-02-23T05:48:27;99838.44;;;11.19;nan
6349;BME280;3207;42.648;23.406;2023-02-23T05:50:54;99851.53;;;11.19;nan
6349;BME280;3207;42.648;23.406;2023-02-23T05:53:21;99855.44;;;11.24;nan
6349;BME280;3207;42.648;23.406;2023-02-23T05:55:47;99850.06;;;11.26;nan
6349;BME280;3207;42.648;23.406;2023-02-23T05:58:14;99851.88;;;11.25;nan
6349;BME280;3207;42.648;23.406;2023-02-23T06:00:43;99848.66;;;11.22;nan
6349;BME280;3207;42.648;23.406;2023-02-23T06:03:10;99848.78;;;11.09;nan
6349;BME280;3207;42.648;23.406;2023-02-23T06:05:36;99863.44;;;11.23;nan
6349;BME280;3207;42.648;23.406;2023-02-23T06:08:04;99852.34;;;11.19;nan
6349;BME280;3207;42.648;23.406;2023-02-23T06:10:30;99874.00;;;11.32;nan
6349;BME280;3207;42.648;23.406;2023-02-23T06:12:57;99875.06;;;11.30;nan
6349;BME280;3207;42.648;23.406;2023-02-23T06:15:24;99876.47;;;11.34;nan
6349;BME280;3207;42.648;23.406;2023-02-23T06:17:52;99883.16;;;11.38;nan
6349;BME280;3207;42.648;23.406;2023-02-23T06:20:19;99884.81;;;11.39;nan
6349;BME280;3207;42.648;23.406;2023-02-23T06:22:47;99885.03;;;11.36;nan
6349;BME280;3207;42.648;23.406;2023-02-23T06:25:14;99897.41;;;11.34;nan
6349;BME280;3207;42.648;23.406;2023-02-23T06:27:40;99904.69;;;11.19;nan
6349;BME280;3207;42.648;23.406;2023-02-23T06:30:10;99897.78;;;11.18;nan
6349;BME280;3207;42.648;23.406;2023-02-23T06:32:37;99899.66;;;11.16;nan
6349;BME280;3207;42.648;23.406;2023-02-23T06:35:06;99909.19;;;11.17;nan
6349;BME280;3207;42.648;23.406;2023-02-23T06:37:34;99916.44;;;11.14;nan
6349;BME280;3207;42.648;23.406;2023-02-23T06:40:00;99912.00;;;10.92;nan
6349;BME280;3207;42.648;23.406;2023-02-23T06:42:27;99909.47;;;10.68;nan
6349;BME280;3207;42.648;23.406;2023-02-23T06:44:54;99911.69;;;10.61;nan
6349;BME280;3207;42.648;23.406;2023-02-23T06:47:21;99911.75;;;10.49;nan
6349;BME280;3207;42.648;23.406;2023-02-23T06:49:48;99917.75;;;10.62;nan
6349;BME280;3207;42.648;23.406;2023-02-23T06:52:16;99917.53;;;10.65;nan
6349;BME280;3207;42.648;23.406;2023-02-23T06:54:43;99915.38;;;10.70;nan
6349;BME280;3207;42.648;23.406;2023-02-23T06:57:10;99919.00;;;10.80;nan
6349;BME280;3207;42.648;23.406;2023-02-23T06:59:37;99923.75;;;10.86;nan
6349;BME280;3207;42.648;23.406;2023-02-23T07:02:04;99916.25;;;10.82;nan
6349;BME280;3207;42.648;23.406;2023-02-23T07:04:31;99916.66;;;10.88;nan
6349;BME280;3207;42.648;23.406;2023-02-23T07:06:58;99916.66;;;10.88;nan
6349;BME280;3207;42.648;23.406;2023-02-23T07:09:26;99918.06;;;10.92;nan
6349;BME280;3207;42.648;23.406;2023-02-23T07:11:53;99926.63;;;10.94;nan
6349;BME280;3207;42.648;23.406;2023-02-23T07:14:20;99917.47;;;10.89;nan
6349;BME280;3207;42.648;23.406;2023-02-23T07:16:47;99928.78;;;10.89;nan
6349;BME280;3207;42.648;23.406;2023-02-23T07:19:14;99925.66;;;10.84;nan
6349;BME280;3207;42.648;23.406;2023-02-23T07:21:40;99919.38;;;10.87;nan
6349;BME280;3207;42.648;23.406;2023-02-23T07:24:07;99925.63;;;10.73;nan
6349;BME280;3207;42.648;23.406;2023-02-23T07:26:35;99927.97;;;10.65;nan
6349;BME280;3207;42.648;23.406;2023-02-23T07:29:05;99934.38;;;10.61;nan
6349;BME280;3207;42.648;23.406;2023-02-23T07:31:32;99922.50;;;10.57;nan
6349;BME280;3207;42.648;23.406;2023-02-23T07:33:58;99895.75;;;10.53;nan
6349;BME280;3207;42.648;23.406;2023-02-23T07:36:25;99931.00;;;10.83;nan
6349;BME280;3207;42.648;23.406;2023-02-23T07:38:52;99921.25;;;10.85;nan
6349;BME280;3207;42.648;23.406;2023-02-23T07:41:19;99925.22;;;10.90;nan
6349;BME280;3207;42.648;23.406;2023-02-23T07:43:48;99921.16;;;10.86;nan
6349;BME280;3207;42.648;23.406;2023-02-23T07:46:15;99930.09;;;10.95;nan
6349;BME280;3207;42.648;23.406;2023-02-23T07:48:42;99929.03;;;10.97;nan
6349;BME280;3207;42.648;23.406;2023-02-23T07:51:10;99941.13;;;10.87;nan
6349;BME280;3207;42.648;23.406;2023-02-23T07:53:37;99938.75;;;10.95;nan
6349;BME280;3207;42.648;23.406;2023-02-23T07:56:05;99940.69;;;11.05;nan
6349;BME280;3207;42.648;23.406;2023-02-23T07:58:33;99944.38;;;11.13;nan
6349;BME280;3207;42.648;23.406;2023-02-23T08:01:01;99942.84;;;11.11;nan
6349;BME280;3207;42.648;23.406;2023-02-23T08:03:28;99921.19;;;10.97;nan
6349;BME280;3207;42.648;23.406;2023-02-23T08:05:55;99941.44;;;11.29;nan
6349;BME280;3207;42.648;23.406;2023-02-23T08:08:23;99940.38;;;11.31;nan
6349;BME280;3207;42.648;23.406;2023-02-23T08:10:49;99933.59;;;11.40;nan
6349;BME280;3207;42.648;23.406;2023-02-23T08:13:16;99941.69;;;11.59;nan
6349;BME280;3207;42.648;23.406;2023-02-23T08:15:43;99953.72;;;11.84;nan
6349;BME280;3207;42.648;23.406;2023-02-23T08:18:11;99947.53;;;11.96;nan
6349;BME280;3207;42.648;23.406;2023-02-23T08:20:39;99949.00;;;12.21;nan
6349;BME280;3207;42.648;23.406;2023-02-23T08:23:05;99943.47;;;12.35;nan
6349;BME280;3207;42.648;23.406;2023-02-23T08:25:32;99948.66;;;12.58;nan
6349;BME280;3207;42.648;23.406;2023-02-23T08:27:59;99959.03;;;12.80;nan
6349;BME280;3207;42.648;23.406;2023-02-23T08:30:29;99956.47;;;13.10;nan
6349;BME280;3207;42.648;23.406;2023-02-23T08:32:56;99954.56;;;13.64;nan
6349;BME280;3207;42.648;23.406;2023-02-23T08:35:24;99957.22;;;14.23;nan
6349;BME280;3207;42.648;23.406;2023-02-23T08:37:51;99967.50;;;14.84;nan
6349;BME280;3207;42.648;23.406;2023-02-23T08:40:18;99957.81;;;15.04;nan
6349;BME280;3207;42.648;23.406;2023-02-23T08:42:45;99954.75;;;15.08;nan
6349;BME280;3207;42.648;23.406;2023-02-23T08:45:13;99961.78;;;15.17;nan
6349;BME280;3207;42.648;23.406;2023-02-23T08:47:40;99960.97;;;15.17;nan
6349;BME280;3207;42.648;23.406;2023-02-23T08:50:09;99960.00;;;15.18;nan
6349;BME280;3207;42.648;23.406;2023-02-23T08:52:38;99962.22;;;15.22;nan
6349;BME280;3207;42.648;23.406;2023-02-23T08:55:06;99957.22;;;15.19;nan
6349;BME280;3207;42.648;23.406;2023-02-23T08:57:35;99962.91;;;15.24;nan
6349;BME280;3207;42.648;23.406;2023-02-23T09:00:04;99956.94;;;15.22;nan
6349;BME280;3207;42.648;23.406;2023-02-23T09:02:37;99950.13;;;15.29;nan
6349;BME280;3207;42.648;23.406;2023-02-23T09:05:04;99917.81;;;15.27;nan
6349;BME280;3207;42.648;23.406;2023-02-23T09:07:31;99963.78;;;15.62;nan
6349;BME280;3207;42.648;23.406;2023-02-23T09:09:59;99968.16;;;15.71;nan
6349;BME280;3207;42.648;23.406;2023-02-23T09:12:26;99959.97;;;15.74;nan
6349;BME280;3207;42.648;23.406;2023-02-23T09:14:53;99966.63;;;15.78;nan
6349;BME280;3207;42.648;23.406;2023-02-23T09:17:20;99967.59;;;15.77;nan
6349;BME280;3207;42.648;23.406;2023-02-23T09:19:47;99979.81;;;15.78;nan
6349;BME280;3207;42.648;23.406;2023-02-23T09:22:14;99976.50;;;15.76;nan
6349;BME280;3207;42.648;23.406;2023-02-23T09:24:42;99973.41;;;15.81;nan
6349;BME280;3207;42.648;23.406;2023-02-23T09:27:11;99974.22;;;15.81;nan
6349;BME280;3207;42.648;23.406;2023-02-23T09:29:38;99980.59;;;15.88;nan
6349;BME280;3207;42.648;23.406;2023-02-23T09:32:06;99975.84;;;15.92;nan
6349;BME280;3207;42.648;23.406;2023-02-23T09:34:33;99973.84;;;16.03;nan
6349;BME280;3207;42.648;23.406;2023-02-23T09:37:00;99968.72;;;16.29;nan
6349;BME280;3207;42.648;23.406;2023-02-23T09:39:27;99973.00;;;16.48;nan
6349;BME280;3207;42.648;23.406;2023-02-23T09:42:16;99979.56;;;16.44;nan
6349;BME280;3207;42.648;23.406;2023-02-23T09:44:58;99976.00;;;16.53;nan
6349;BME280;3207;42.648;23.406;2023-02-23T09:47:32;99985.53;;;16.46;nan
6349;BME280;3207;42.648;23.406;2023-02-23T09:50:12;99979.66;;;16.52;nan
6349;BME280;3207;42.648;23.406;2023-02-23T09:52:44;99981.00;;;16.56;nan
6349;BME280;3207;42.648;23.406;2023-02-23T09:55:13;99981.41;;;16.61;nan
6349;BME280;3207;42.648;23.406;2023-02-23T09:57:43;99981.50;;;16.69;nan
6349;BME280;3207;42.648;23.406;2023-02-23T10:00:22;99982.63;;;16.67;nan
6349;BME280;3207;42.648;23.406;2023-02-23T10:03:01;99982.06;;;16.63;nan
6349;BME280;3207;42.648;23.406;2023-02-23T10:05:35;99979.22;;;16.74;nan
6349;BME280;3207;42.648;23.406;2023-02-23T10:08:06;99972.44;;;16.72;nan
6349;BME280;3207;42.648;23.406;2023-02-23T10:10:42;99981.75;;;17.02;nan
6349;BME280;3207;42.648;23.406;2023-02-23T10:13:16;99990.72;;;17.09;nan
6349;BME280;3207;42.648;23.406;2023-02-23T10:15:51;99981.72;;;17.19;nan
6349;BME280;3207;42.648;23.406;2023-02-23T10:18:29;99994.53;;;17.32;nan
6349;BME280;3207;42.648;23.406;2023-02-23T10:21:02;99986.50;;;17.42;nan
6349;BME280;3207;42.648;23.406;2023-02-23T10:23:33;99980.66;;;17.56;nan
6349;BME280;3207;42.648;23.406;2023-02-23T10:26:04;99988.84;;;17.71;nan
6349;BME280;3207;42.648;23.406;2023-02-23T10:28:35;99986.19;;;17.71;nan
6349;BME280;3207;42.648;23.406;2023-02-23T10:31:12;99979.88;;;17.64;nan
6349;BME280;3207;42.648;23.406;2023-02-23T10:33:42;99977.94;;;17.74;nan
6349;BME280;3207;42.648;23.406;2023-02-23T10:36:14;99985.25;;;17.80;nan
6349;BME280;3207;42.648;23.406;2023-02-23T10:38:43;99981.31;;;17.92;nan
6349;BME280;3207;42.648;23.406;2023-02-23T10:41:11;99977.09;;;18.07;nan
6349;BME280;3207;42.648;23.406;2023-02-23T10:43:39;99980.13;;;18.20;nan
6349;BME280;3207;42.648;23.406;2023-02-23T10:46:10;99969.53;;;18.20;nan
6349;BME280;3207;42.648;23.406;2023-02-23T10:48:43;99970.53;;;18.27;nan
6349;BME280;3207;42.648;23.406;2023-02-23T10:51:16;99970.69;;;18.26;nan
6349;BME280;3207;42.648;23.406;2023-02-23T10:53:44;99950.34;;;18.26;nan
6349;BME280;3207;42.648;23.406;2023-02-23T10:56:12;99953.31;;;18.15;nan
6349;BME280;3207;42.648;23.406;2023-02-23T10:58:42;99951.66;;;18.14;nan
6349;BME280;3207;42.648;23.406;2023-02-23T11:01:11;99955.28;;;18.13;nan
6349;BME280;3207;42.648;23.406;2023-02-23T11:03:39;99945.50;;;18.06;nan
6349;BME280;3207;42.648;23.406;2023-02-23T11:06:26;99944.00;;;18.03;nan
6349;BME280;3207;42.648;23.406;2023-02-23T11:08:53;99943.38;;;18.09;nan
6349;BME280;3207;42.648;23.406;2023-02-23T11:11:23;99932.50;;;18.20;nan
6349;BME280;3207;42.648;23.406;2023-02-23T11:13:55;99935.00;;;18.22;nan
6349;BME280;3207;42.648;23.406;2023-02-23T11:16:24;99937.28;;;18.33;nan
6349;BME280;3207;42.648;23.406;2023-02-23T11:18:54;99930.53;;;18.39;nan
6349;BME280;3207;42.648;23.406;2023-02-23T11:21:24;99937.47;;;18.32;nan
6349;BME280;3207;42.648;23.406;2023-02-23T11:23:55;99924.25;;;18.32;nan
6349;BME280;3207;42.648;23.406;2023-02-23T11:26:34;99923.41;;;18.31;nan
6349;BME280;3207;42.648;23.406;2023-02-23T11:29:11;99923.56;;;18.29;nan
6349;BME280;3207;42.648;23.406;2023-02-23T11:31:40;99920.72;;;18.07;nan
6349;BME280;3207;42.648;23.406;2023-02-23T11:34:20;99917.38;;;17.97;nan
6349;BME280;3207;42.648;23.406;2023-02-23T11:36:58;99914.03;;;17.86;nan
6349;BME280;3207;42.648;23.406;2023-02-23T11:39:25;99908.25;;;17.83;nan
6349;BME280;3207;42.648;23.406;2023-02-23T11:42:14;99902.19;;;17.56;nan
6349;BME280;3207;42.648;23.406;2023-02-23T11:44:49;99907.78;;;17.62;nan
6349;BME280;3207;42.648;23.406;2023-02-23T11:47:17;99905.16;;;17.62;nan
6349;BME280;3207;42.648;23.406;2023-02-23T11:49:47;99903.31;;;17.54;nan
6349;BME280;3207;42.648;23.406;2023-02-23T11:52:16;99902.59;;;17.44;nan
6349;BME280;3207;42.648;23.406;2023-02-23T11:54:50;99909.97;;;17.32;nan
6349;BME280;3207;42.648;23.406;2023-02-23T11:57:22;99905.75;;;17.13;nan
6349;BME280;3207;42.648;23.406;2023-02-23T11:59:51;99902.72;;;17.08;nan
6349;BME280;3207;42.648;23.406;2023-02-23T12:02:22;99901.22;;;17.06;nan
6349;BME280;3207;42.648;23.406;2023-02-23T12:04:51;99899.94;;;17.10;nan
6349;BME280;3207;42.648;23.406;2023-02-23T12:07:29;99901.22;;;17.06;nan
6349;BME280;3207;42.648;23.406;2023-02-23T12:10:03;99895.59;;;17.01;nan
6349;BME280;3207;42.648;23.406;2023-02-23T12:12:39;99908.03;;;16.82;nan
6349;BME280;3207;42.648;23.406;2023-02-23T12:15:17;99890.47;;;16.73;nan
6349;BME280;3207;42.648;23.406;2023-02-23T12:17:48;99891.28;;;16.56;nan
6349;BME280;3207;42.648;23.406;2023-02-23T12:20:20;99890.91;;;16.69;nan
6349;BME280;3207;42.648;23.406;2023-02-23T12:22:52;99859.41;;;16.50;nan
6349;BME280;3207;42.648;23.406;2023-02-23T12:25:24;99892.03;;;16.66;nan
6349;BME280;3207;42.648;23.406;2023-02-23T12:27:58;99888.13;;;16.70;nan
6349;BME280;3207;42.648;23.406;2023-02-23T12:30:39;99885.34;;;16.72;nan
6349;BME280;3207;42.648;23.406;2023-02-23T12:33:11;99885.34;;;16.72;nan
6349;BME280;3207;42.648;23.406;2023-02-23T12:35:44;99875.81;;;16.61;nan
6349;BME280;3207;42.648;23.406;2023-02-23T12:38:19;99869.19;;;16.57;nan
6349;BME280;3207;42.648;23.406;2023-02-23T12:40:51;99878.16;;;16.64;nan
6349;BME280;3207;42.648;23.406;2023-02-23T12:43:24;99875.69;;;16.63;nan
6349;BME280;3207;42.648;23.406;2023-02-23T12:45:58;99877.94;;;16.58;nan
6349;BME280;3207;42.648;23.406;2023-02-23T12:48:34;99877.50;;;16.62;nan
6349;BME280;3207;42.648;23.406;2023-02-23T12:51:05;99876.19;;;16.66;nan
6349;BME280;3207;42.648;23.406;2023-02-23T12:53:39;99878.59;;;16.77;nan
6349;BME280;3207;42.648;23.406;2023-02-23T12:56:17;99874.44;;;16.75;nan
6349;BME280;3207;42.648;23.406;2023-02-23T12:58:54;99869.78;;;16.69;nan
6349;BME280;3207;42.648;23.406;2023-02-23T13:01:29;99868.59;;;16.63;nan
6349;BME280;3207;42.648;23.406;2023-02-23T13:06:55;99856.91;;;16.48;nan
6349;BME280;3207;42.648;23.406;2023-02-23T13:09:31;99864.69;;;16.50;nan
6349;BME280;3207;42.648;23.406;2023-02-23T13:12:21;99862.41;;;16.37;nan
6349;BME280;3207;42.648;23.406;2023-02-23T13:14:57;99868.66;;;16.36;nan
6349;BME280;3207;42.648;23.406;2023-02-23T13:17:37;99868.66;;;16.36;nan
6349;BME280;3207;42.648;23.406;2023-02-23T13:20:14;99863.09;;;16.39;nan
6349;BME280;3207;42.648;23.406;2023-02-23T13:22:45;99864.28;;;16.44;nan
6349;BME280;3207;42.648;23.406;2023-02-23T13:25:23;99868.28;;;16.48;nan
6349;BME280;3207;42.648;23.406;2023-02-23T13:27:54;99867.47;;;16.48;nan
6349;BME280;3207;42.648;23.406;2023-02-23T13:30:24;99873.56;;;16.48;nan
6349;BME280;3207;42.648;23.406;2023-02-23T13:32:53;99863.09;;;16.21;nan
6349;BME280;3207;42.648;23.406;2023-02-23T13:35:21;99873.94;;;16.36;nan
6349;BME280;3207;42.648;23.406;2023-02-23T13:37:50;99867.47;;;16.48;nan
6349;BME280;3207;42.648;23.406;2023-02-23T13:40:27;99849.97;;;16.11;nan
6349;BME280;3207;42.648;23.406;2023-02-23T13:43:05;99867.84;;;16.35;nan
6349;BME280;3207;42.648;23.406;2023-02-23T13:45:46;99859.47;;;16.40;nan
6349;BME280;3207;42.648;23.406;2023-02-23T13:48:41;99871.59;;;16.68;nan
6349;BME280;3207;42.648;23.406;2023-02-23T13:51:16;99863.44;;;16.79;nan
6349;BME280;3207;42.648;23.406;2023-02-23T13:53:47;99861.72;;;16.70;nan
6349;BME280;3207;42.648;23.406;2023-02-23T13:56:25;99866.28;;;16.86;nan
6349;BME280;3207;42.648;23.406;2023-02-23T13:58:54;99861.41;;;16.99;nan
6349;BME280;3207;42.648;23.406;2023-02-23T14:01:28;99863.22;;;16.99;nan
6349;BME280;3207;42.648;23.406;2023-02-23T14:03:59;99862.34;;;16.90;nan
6349;BME280;3207;42.648;23.406;2023-02-23T14:06:28;99843.41;;;16.69;nan
6349;BME280;3207;42.648;23.406;2023-02-23T14:08:57;99861.97;;;16.85;nan